Time;durP1;ratioP1;P1;durP2;ratioP2;P2;SDS_P1;SDS_P2;PMS_P1;PMS_P2;Temp;Humidity;BMP_temperature;BMP_pressure;BME280_temperature;BME280_humidity;BME280_pressure;Samples;Min_cycle;Max_cycle;Signal;HPM_P1;HPM_P2
2023/08/02 00:02:13;;;;;;;30.23;9.90;;;;;;;;;;5009832;28;20537;-82
2023/08/02 00:04:38;;;;;;;12.07;8.73;;;;;;;;;;5009694;28;20105;-82
2023/08/02 00:07:04;;;;;;;14.57;8.15;;;;;;;;;;5025886;28;20060;-82
2023/08/02 00:09:29;;;;;;;10.00;7.30;;;;;;;;;;5009665;28;20026;-84
2023/08/02 00:11:55;;;;;;;8.25;6.55;;;;;;;;;;5012083;28;20026;-83
2023/08/02 00:14:21;;;;;;;17.23;6.90;;;;;;;;;;5015554;28;20401;-83
2023/08/02 00:16:46;;;;;;;7.53;6.65;;;;;;;;;;5016956;28;20045;-83
2023/08/02 00:19:12;;;;;;;7.35;6.65;;;;;;;;;;5016325;28;20565;-83
2023/08/02 00:21:37;;;;;;;11.70;6.82;;;;;;;;;;5016430;28;20136;-83
2023/08/02 00:24:03;;;;;;;39.72;6.90;;;;;;;;;;5016367;28;20037;-84
2023/08/02 00:26:28;;;;;;;13.55;6.65;;;;;;;;;;5016310;28;20493;-83
2023/08/02 00:28:54;;;;;;;9.05;6.00;;;;;;;;;;5016339;28;20040;-83
2023/08/02 00:31:19;;;;;;;38.28;6.43;;;;;;;;;;5030458;28;20034;-84
2023/08/02 00:33:45;;;;;;;19.90;6.05;;;;;;;;;;5016330;28;20052;-83
2023/08/02 00:36:10;;;;;;;6.30;5.65;;;;;;;;;;4998431;28;20453;-83
2023/08/02 00:38:36;;;;;;;10.68;6.00;;;;;;;;;;5015349;28;20493;-83
2023/08/02 00:44:31;;;;;;;14.13;5.30;;;;;;;;;;5000164;28;20041;-83
2023/08/02 00:46:57;;;;;;;8.77;4.88;;;;;;;;;;5014567;28;20041;-83
2023/08/02 00:49:22;;;;;;;6.47;4.72;;;;;;;;;;5031466;28;20104;-83
2023/08/02 00:51:48;;;;;;;7.18;5.15;;;;;;;;;;5031169;28;20038;-83
2023/08/02 00:54:15;;;;;;;6.55;4.75;;;;;;;;;;5014645;28;20092;-83
2023/08/02 00:56:40;;;;;;;5.72;5.22;;;;;;;;;;4998097;28;20067;-83
2023/08/02 00:59:06;;;;;;;7.78;5.15;;;;;;;;;;5015606;28;20366;-84
2023/08/02 01:01:31;;;;;;;21.08;5.70;;;;;;;;;;5015741;28;20052;-83
2023/08/02 01:03:57;;;;;;;6.32;5.38;;;;;;;;;;5014513;28;20022;-84
2023/08/02 01:06:31;;;;;;;48.95;6.88;;;;;;;;;;5014622;28;20136;-83
2023/08/02 01:09:04;;;;;;;24.33;6.13;;;;;;;;;;5031000;28;20069;-83
2023/08/02 01:11:41;;;;;;;8.23;5.88;;;;;;;;;;5015479;28;20073;-83
2023/08/02 01:14:07;;;;;;;8.93;6.10;;;;;;;;;;5015437;28;20468;-83
2023/08/02 01:16:33;;;;;;;89.25;8.27;;;;;;;;;;5014254;28;20033;-83
2023/08/02 01:19:03;;;;;;;75.47;7.75;;;;;;;;;;5008744;28;20042;-83
2023/08/02 01:21:29;;;;;;;17.27;6.03;;;;;;;;;;5013663;28;20030;-84
2023/08/02 01:23:54;;;;;;;7.32;6.15;;;;;;;;;;5014127;28;20042;-83
2023/08/02 01:26:19;;;;;;;8.40;6.55;;;;;;;;;;5015444;28;20519;-83
2023/08/02 01:28:45;;;;;;;8.80;5.97;;;;;;;;;;5023064;28;20119;-83
2023/08/02 01:31:10;;;;;;;13.07;6.68;;;;;;;;;;4997509;28;20485;-83
2023/08/02 01:33:37;;;;;;;120.10;9.77;;;;;;;;;;4997751;28;20179;-84
2023/08/02 01:36:03;;;;;;;11.57;6.47;;;;;;;;;;4997241;28;20060;-83
2023/08/02 01:38:29;;;;;;;12.35;6.70;;;;;;;;;;5014383;28;20081;-83
2023/08/02 01:40:54;;;;;;;53.55;6.72;;;;;;;;;;5012945;28;20018;-83
2023/08/02 01:43:19;;;;;;;31.67;6.43;;;;;;;;;;5015176;28;20049;-83
2023/08/02 01:45:47;;;;;;;16.45;5.78;;;;;;;;;;5014633;28;20121;-83
2023/08/02 01:48:12;;;;;;;22.00;5.47;;;;;;;;;;4997452;28;20445;-83
2023/08/02 01:50:38;;;;;;;8.77;5.05;;;;;;;;;;5013578;28;20100;-83
2023/08/02 01:53:03;;;;;;;7.97;4.75;;;;;;;;;;5015006;28;20073;-83
2023/08/02 01:55:29;;;;;;;20.08;4.88;;;;;;;;;;5013522;28;20037;-84
2023/08/02 01:57:54;;;;;;;4.75;4.25;;;;;;;;;;5013786;28;20037;-83
2023/08/02 02:00:20;;;;;;;6.07;4.70;;;;;;;;;;5001878;28;20117;-83
2023/08/02 02:02:45;;;;;;;5.55;4.30;;;;;;;;;;5013402;28;20025;-83
2023/08/02 02:05:12;;;;;;;5.57;4.35;;;;;;;;;;4997464;28;20471;-84
2023/08/02 02:07:37;;;;;;;5.55;4.07;;;;;;;;;;5013186;28;20113;-84
2023/08/02 02:10:03;;;;;;;18.42;5.05;;;;;;;;;;5013323;28;20049;-84
2023/08/02 02:12:28;;;;;;;9.82;4.47;;;;;;;;;;5008374;28;20051;-84
2023/08/02 02:14:54;;;;;;;19.52;5.20;;;;;;;;;;5006020;28;20034;-84
2023/08/02 02:17:19;;;;;;;69.68;5.70;;;;;;;;;;5012657;28;20045;-84
2023/08/02 02:19:46;;;;;;;110.88;6.65;;;;;;;;;;5014565;28;20531;-85
2023/08/02 02:22:12;;;;;;;80.68;6.53;;;;;;;;;;5012719;28;20124;-84
2023/08/02 02:24:37;;;;;;;61.30;6.25;;;;;;;;;;5029591;28;20508;-84
2023/08/02 02:27:03;;;;;;;49.28;6.03;;;;;;;;;;4993044;28;20038;-84
2023/08/02 02:29:28;;;;;;;47.53;6.18;;;;;;;;;;5004780;28;20461;-84
2023/08/02 02:31:54;;;;;;;78.38;7.57;;;;;;;;;;5018051;28;20034;-84
2023/08/02 02:34:19;;;;;;;18.90;5.45;;;;;;;;;;5012271;28;20026;-84
2023/08/02 02:36:46;;;;;;;199.30;10.38;;;;;;;;;;5029375;28;20042;-84
2023/08/02 02:39:11;;;;;;;12.60;6.00;;;;;;;;;;4993335;28;20065;-84
2023/08/02 02:41:37;;;;;;;117.07;8.25;;;;;;;;;;5012795;28;20041;-84
2023/08/02 02:44:02;;;;;;;20.95;5.90;;;;;;;;;;5012357;28;20466;-84
2023/08/02 02:46:28;;;;;;;6.07;5.47;;;;;;;;;;5024269;28;20421;-84
2023/08/02 02:48:53;;;;;;;7.70;4.75;;;;;;;;;;5012552;28;20026;-85
2023/08/02 02:51:19;;;;;;;5.50;4.90;;;;;;;;;;4993166;28;20512;-85
2023/08/02 02:53:44;;;;;;;11.70;5.57;;;;;;;;;;4994133;28;20069;-85
2023/08/02 02:56:10;;;;;;;12.13;5.28;;;;;;;;;;5029052;28;20025;-85
2023/08/02 02:58:35;;;;;;;5.72;4.47;;;;;;;;;;5011890;28;20037;-84
2023/08/02 03:01:01;;;;;;;42.90;5.75;;;;;;;;;;4992510;28;20052;-84
2023/08/02 03:03:26;;;;;;;125.03;7.13;;;;;;;;;;5009286;28;20397;-85
2023/08/02 03:05:53;;;;;;;105.13;7.13;;;;;;;;;;5013675;28;20088;-85
2023/08/02 03:08:18;;;;;;;145.73;8.48;;;;;;;;;;5028677;28;20425;-85
2023/08/02 03:10:44;;;;;;;20.02;5.50;;;;;;;;;;5028797;28;20112;-82
2023/08/02 03:13:09;;;;;;;56.17;9.82;;;;;;;;;;5011846;28;20046;-85
2023/08/02 03:15:35;;;;;;;96.75;14.60;;;;;;;;;;5028765;28;20061;-86
2023/08/02 03:18:00;;;;;;;40.33;14.70;;;;;;;;;;4995452;28;20033;-84
2023/08/02 03:20:26;;;;;;;46.70;16.83;;;;;;;;;;5012175;28;20034;-85
2023/08/02 03:22:51;;;;;;;43.45;16.80;;;;;;;;;;4994170;28;20378;-85
2023/08/02 03:25:17;;;;;;;37.92;14.95;;;;;;;;;;5028471;28;20060;-84
2023/08/02 03:27:42;;;;;;;40.88;12.38;;;;;;;;;;5011781;28;20515;-84
2023/08/02 03:30:08;;;;;;;16.67;9.07;;;;;;;;;;5009965;28;20038;-86
2023/08/02 03:32:33;;;;;;;11.18;6.28;;;;;;;;;;4993193;28;20048;-85
2023/08/02 03:34:59;;;;;;;18.90;6.30;;;;;;;;;;5012019;28;20022;-85
2023/08/02 03:37:24;;;;;;;9.70;5.63;;;;;;;;;;5011972;28;20037;-85
2023/08/02 03:39:50;;;;;;;45.78;6.30;;;;;;;;;;5013405;28;20124;-84
2023/08/02 03:42:15;;;;;;;16.50;5.57;;;;;;;;;;5011955;28;20026;-84
2023/08/02 03:44:41;;;;;;;8.98;5.95;;;;;;;;;;5011817;28;20084;-85
2023/08/02 03:47:06;;;;;;;14.60;5.72;;;;;;;;;;5004082;28;20093;-85
2023/08/02 03:49:32;;;;;;;21.23;5.70;;;;;;;;;;5012834;28;20040;-85
2023/08/02 03:51:57;;;;;;;6.22;5.63;;;;;;;;;;5013708;28;20120;-85
2023/08/02 03:54:23;;;;;;;11.00;5.53;;;;;;;;;;4995562;28;20022;-86
2023/08/02 03:56:48;;;;;;;5.80;5.15;;;;;;;;;;5008896;28;20038;-85
2023/08/02 03:59:14;;;;;;;8.20;5.45;;;;;;;;;;5012890;28;20393;-86
2023/08/02 04:01:39;;;;;;;11.98;5.55;;;;;;;;;;5012231;28;20034;-85
2023/08/02 04:04:05;;;;;;;8.75;5.20;;;;;;;;;;5013368;28;20029;-84
2023/08/02 04:06:30;;;;;;;7.28;5.68;;;;;;;;;;5010103;28;20044;-85
2023/08/02 04:08:55;;;;;;;18.95;5.57;;;;;;;;;;5013292;28;20469;-84
2023/08/02 04:11:21;;;;;;;10.35;5.78;;;;;;;;;;4995885;28;20030;-84
2023/08/02 04:13:47;;;;;;;5.70;5.10;;;;;;;;;;5006273;28;20046;-84
2023/08/02 04:16:12;;;;;;;7.32;5.22;;;;;;;;;;5001716;28;20038;-85
2023/08/02 04:18:38;;;;;;;5.80;4.82;;;;;;;;;;4996729;28;20053;-85
2023/08/02 04:21:03;;;;;;;5.97;5.38;;;;;;;;;;5015588;28;20049;-85
2023/08/02 04:23:28;;;;;;;7.20;4.35;;;;;;;;;;5011845;28;20022;-85
2023/08/02 04:25:54;;;;;;;7.75;4.63;;;;;;;;;;5012856;28;20034;-84
2023/08/02 04:28:19;;;;;;;7.65;3.97;;;;;;;;;;5011952;28;20543;-84
2023/08/02 04:30:49;;;;;;;5.10;3.80;;;;;;;;;;5010509;28;20113;-84
2023/08/02 04:33:14;;;;;;;5.20;3.88;;;;;;;;;;5013106;28;20025;-85
2023/08/02 04:35:39;;;;;;;6.32;3.70;;;;;;;;;;5010994;28;20041;-84
2023/08/02 04:38:05;;;;;;;6.85;3.22;;;;;;;;;;5011408;28;20029;-85
2023/08/02 04:40:30;;;;;;;8.63;3.60;;;;;;;;;;5011509;28;20120;-85
2023/08/02 04:42:56;;;;;;;4.50;3.45;;;;;;;;;;4995382;28;20030;-84
2023/08/02 04:45:21;;;;;;;18.45;3.70;;;;;;;;;;5011227;28;20072;-84
2023/08/02 04:47:47;;;;;;;4.25;3.00;;;;;;;;;;5003788;28;20025;-85
2023/08/02 04:50:12;;;;;;;4.50;3.70;;;;;;;;;;5027739;28;20038;-85
2023/08/02 04:52:38;;;;;;;3.67;3.25;;;;;;;;;;5011240;28;20026;-84
2023/08/02 04:55:05;;;;;;;4.28;3.28;;;;;;;;;;5011804;28;20037;-84
2023/08/02 04:57:30;;;;;;;5.03;3.67;;;;;;;;;;5028559;28;20030;-84
2023/08/02 04:59:56;;;;;;;4.75;4.10;;;;;;;;;;5014777;28;20038;-85
2023/08/02 05:02:25;;;;;;;4.90;4.40;;;;;;;;;;5016171;28;20117;-84
2023/08/02 05:04:52;;;;;;;4.90;4.13;;;;;;;;;;5014727;28;20053;-85
2023/08/02 05:07:18;;;;;;;5.70;4.10;;;;;;;;;;5016018;28;20076;-84
2023/08/02 05:09:43;;;;;;;7.20;4.70;;;;;;;;;;5014697;28;20393;-84
2023/08/02 05:12:09;;;;;;;5.15;4.47;;;;;;;;;;5015950;28;20124;-84
2023/08/02 05:14:34;;;;;;;5.35;4.50;;;;;;;;;;4994864;28;20026;-84
2023/08/02 05:17:00;;;;;;;5.03;3.97;;;;;;;;;;5014846;28;20501;-84
2023/08/02 05:19:25;;;;;;;4.70;3.83;;;;;;;;;;5015851;28;20501;-83
2023/08/02 05:21:51;;;;;;;5.03;4.53;;;;;;;;;;5009157;28;20034;-84
2023/08/02 05:24:16;;;;;;;4.30;3.90;;;;;;;;;;4995156;28;20441;-84
2023/08/02 05:26:42;;;;;;;4.82;4.32;;;;;;;;;;5012507;28;20037;-85
2023/08/02 05:29:07;;;;;;;5.15;4.65;;;;;;;;;;4994067;28;20087;-84
2023/08/02 05:31:32;;;;;;;6.15;4.18;;;;;;;;;;5015800;28;20067;-85
2023/08/02 05:34:23;;;;;;;4.68;3.80;;;;;;;;;;5001730;28;20041;-84
2023/08/02 05:36:48;;;;;;;4.00;3.60;;;;;;;;;;5014387;28;20057;-85
2023/08/02 05:39:15;;;;;;;5.35;4.50;;;;;;;;;;4996315;28;20029;-84
2023/08/02 05:41:43;;;;;;;4.95;4.45;;;;;;;;;;4998558;28;20132;-85
2023/08/02 05:44:08;;;;;;;5.75;4.20;;;;;;;;;;4997028;28;20120;-85
2023/08/02 05:46:34;;;;;;;5.93;4.72;;;;;;;;;;5014095;28;20045;-85
2023/08/02 05:48:59;;;;;;;5.63;4.15;;;;;;;;;;5013952;28;20018;-86
2023/08/02 05:51:25;;;;;;;6.13;4.05;;;;;;;;;;5014044;28;20030;-85
2023/08/02 05:53:50;;;;;;;5.43;4.47;;;;;;;;;;4997369;28;20036;-86
2023/08/02 05:56:16;;;;;;;7.13;4.40;;;;;;;;;;5014395;28;20126;-84
2023/08/02 05:58:41;;;;;;;4.00;3.60;;;;;;;;;;4995035;28;20029;-86
2023/08/02 06:01:07;;;;;;;6.10;4.20;;;;;;;;;;5015325;28;20038;-83
2023/08/02 06:03:32;;;;;;;4.68;4.18;;;;;;;;;;5010377;28;20022;-84
2023/08/02 06:05:58;;;;;;;4.22;3.83;;;;;;;;;;4997498;28;20382;-84
2023/08/02 06:08:23;;;;;;;4.30;3.47;;;;;;;;;;4997198;28;20021;-84
2023/08/02 06:10:49;;;;;;;3.30;3.00;;;;;;;;;;5014434;28;20128;-86
2023/08/02 06:13:14;;;;;;;3.75;3.03;;;;;;;;;;5014989;28;20056;-86
2023/08/02 06:15:40;;;;;;;3.53;3.08;;;;;;;;;;5013262;28;20119;-86
2023/08/02 06:18:05;;;;;;;3.70;3.10;;;;;;;;;;5013691;28;20022;-85
2023/08/02 06:20:30;;;;;;;4.55;3.40;;;;;;;;;;5014334;28;20034;-85
2023/08/02 06:22:56;;;;;;;4.93;3.63;;;;;;;;;;5014788;28;20030;-83
2023/08/02 06:25:21;;;;;;;6.30;3.53;;;;;;;;;;5014107;28;20064;-84
2023/08/02 06:27:47;;;;;;;4.20;3.15;;;;;;;;;;5014415;28;20029;-84
2023/08/02 06:30:13;;;;;;;4.88;3.15;;;;;;;;;;5012786;28;20065;-85
2023/08/02 06:32:38;;;;;;;3.25;2.85;;;;;;;;;;5029698;28;20025;-86
2023/08/02 06:35:04;;;;;;;3.35;2.90;;;;;;;;;;5013281;28;20051;-84
2023/08/02 06:37:30;;;;;;;3.80;2.90;;;;;;;;;;5012982;28;20125;-85
2023/08/02 06:39:55;;;;;;;5.38;2.70;;;;;;;;;;5014259;28;20042;-85
2023/08/02 06:42:20;;;;;;;6.43;2.80;;;;;;;;;;4996363;28;20583;-85
2023/08/02 06:44:46;;;;;;;6.80;2.50;;;;;;;;;;5014702;28;20034;-85
2023/08/02 06:47:11;;;;;;;2.60;2.30;;;;;;;;;;5012659;28;20026;-85
2023/08/02 06:49:37;;;;;;;3.63;2.55;;;;;;;;;;5013919;28;20453;-85
2023/08/02 06:52:02;;;;;;;3.83;2.40;;;;;;;;;;5013861;28;20057;-85
2023/08/02 06:54:28;;;;;;;3.72;2.47;;;;;;;;;;5012811;28;20041;-85
2023/08/02 06:56:54;;;;;;;3.15;2.40;;;;;;;;;;5013988;28;20075;-85
2023/08/02 06:59:19;;;;;;;4.93;2.65;;;;;;;;;;5012841;28;20038;-83
2023/08/02 07:01:45;;;;;;;3.17;2.47;;;;;;;;;;4993669;28;20030;-85
2023/08/02 07:04:11;;;;;;;3.20;2.28;;;;;;;;;;5013986;28;20038;-84
2023/08/02 07:06:36;;;;;;;3.60;2.50;;;;;;;;;;5014173;28;20044;-86
2023/08/02 07:09:01;;;;;;;6.97;2.80;;;;;;;;;;5013724;28;20402;-85
2023/08/02 07:11:27;;;;;;;3.47;2.40;;;;;;;;;;5012374;28;20036;-85
2023/08/02 07:13:52;;;;;;;3.17;2.40;;;;;;;;;;5022490;28;20132;-86
2023/08/02 07:16:18;;;;;;;2.75;2.35;;;;;;;;;;5013190;28;20037;-85
2023/08/02 07:18:43;;;;;;;3.97;2.33;;;;;;;;;;5012387;28;20125;-85
2023/08/02 07:21:09;;;;;;;2.67;2.20;;;;;;;;;;5006108;28;20507;-85
2023/08/02 07:23:35;;;;;;;5.10;2.38;;;;;;;;;;5012083;28;20128;-84
2023/08/02 07:26:00;;;;;;;3.25;2.95;;;;;;;;;;5028451;28;20029;-85
2023/08/02 07:28:26;;;;;;;3.85;2.65;;;;;;;;;;5013374;28;20034;-85
2023/08/02 07:30:51;;;;;;;6.22;2.50;;;;;;;;;;5012490;28;20040;-85
2023/08/02 07:33:20;;;;;;;5.38;2.50;;;;;;;;;;5012823;28;20496;-86
2023/08/02 07:35:48;;;;;;;3.05;2.20;;;;;;;;;;5012237;28;20030;-84
2023/08/02 07:38:14;;;;;;;3.03;2.30;;;;;;;;;;5012744;28;20034;-85
2023/08/02 07:40:41;;;;;;;3.25;2.47;;;;;;;;;;5013596;28;20044;-86
2023/08/02 07:43:07;;;;;;;3.15;2.60;;;;;;;;;;5013662;28;20505;-85
2023/08/02 07:45:32;;;;;;;5.30;2.70;;;;;;;;;;5009751;28;20050;-85
2023/08/02 07:47:58;;;;;;;2.90;2.40;;;;;;;;;;5013432;28;20080;-84
2023/08/02 07:50:23;;;;;;;3.72;2.90;;;;;;;;;;5013754;28;20022;-86
2023/08/02 07:52:49;;;;;;;3.20;2.60;;;;;;;;;;5002598;28;20061;-85
2023/08/02 07:55:14;;;;;;;3.20;2.50;;;;;;;;;;5012012;28;20030;-86
2023/08/02 07:57:40;;;;;;;3.05;2.60;;;;;;;;;;4995901;28;20042;-85
2023/08/02 08:00:05;;;;;;;2.72;2.50;;;;;;;;;;5011680;28;20021;-85
2023/08/02 08:02:37;;;;;;;6.43;3.00;;;;;;;;;;5012831;28;20038;-85
2023/08/02 08:05:03;;;;;;;3.45;2.50;;;;;;;;;;4995264;28;20417;-84
2023/08/02 08:07:28;;;;;;;4.47;2.28;;;;;;;;;;5013016;28;20034;-84
2023/08/02 08:09:57;;;;;;;3.88;2.92;;;;;;;;;;5007814;28;20121;-85
2023/08/02 08:12:24;;;;;;;3.10;2.80;;;;;;;;;;5012271;28;20137;-85
2023/08/02 08:14:50;;;;;;;3.28;2.85;;;;;;;;;;5012725;28;20492;-85
2023/08/02 08:17:15;;;;;;;4.05;2.90;;;;;;;;;;5012959;28;20061;-85
2023/08/02 08:19:43;;;;;;;3.45;2.90;;;;;;;;;;5012835;28;20034;-85
2023/08/02 08:22:08;;;;;;;4.25;2.70;;;;;;;;;;5012111;28;20576;-85
2023/08/02 08:24:36;;;;;;;4.22;2.40;;;;;;;;;;5012516;28;20053;-85
2023/08/02 08:27:02;;;;;;;4.30;2.78;;;;;;;;;;5013021;28;20488;-87
2023/08/02 08:29:28;;;;;;;3.13;2.67;;;;;;;;;;5012188;28;20493;-87
2023/08/02 08:31:53;;;;;;;4.07;2.72;;;;;;;;;;5027023;28;20030;-86
2023/08/02 08:34:19;;;;;;;3.97;2.33;;;;;;;;;;5031685;28;20033;-85
2023/08/02 08:36:45;;;;;;;3.47;2.70;;;;;;;;;;5015395;28;20545;-87
2023/08/02 08:39:10;;;;;;;4.03;2.70;;;;;;;;;;5016443;28;20028;-85
2023/08/02 08:41:36;;;;;;;4.95;2.70;;;;;;;;;;5014708;28;20040;-85
2023/08/02 08:44:01;;;;;;;4.68;2.67;;;;;;;;;;5014589;28;20022;-85
2023/08/02 08:46:27;;;;;;;3.10;2.33;;;;;;;;;;5014733;28;20439;-85
2023/08/02 08:48:53;;;;;;;3.60;2.30;;;;;;;;;;4998687;28;20026;-85
2023/08/02 08:51:19;;;;;;;2.97;2.38;;;;;;;;;;5016243;28;20040;-86
2023/08/02 08:53:44;;;;;;;3.22;2.30;;;;;;;;;;5015066;28;20063;-85
2023/08/02 08:56:10;;;;;;;4.80;2.80;;;;;;;;;;5015149;28;20408;-84
2023/08/02 08:58:36;;;;;;;2.95;2.50;;;;;;;;;;5014872;28;20026;-86
2023/08/02 09:01:04;;;;;;;2.58;2.28;;;;;;;;;;5031508;28;20168;-85
2023/08/02 09:03:30;;;;;;;3.03;2.20;;;;;;;;;;5015966;28;20022;-85
2023/08/02 09:06:00;;;;;;;2.50;2.17;;;;;;;;;;5008728;28;20425;-84
2023/08/02 09:08:25;;;;;;;5.03;2.38;;;;;;;;;;5014849;28;20393;-85
2023/08/02 09:10:51;;;;;;;3.58;2.20;;;;;;;;;;5031067;28;20033;-84
2023/08/02 09:13:23;;;;;;;3.10;2.08;;;;;;;;;;5031259;28;20060;-84
2023/08/02 09:16:03;;;;;;;2.67;1.98;;;;;;;;;;5015862;28;20038;-85
2023/08/02 09:18:39;;;;;;;2.85;1.90;;;;;;;;;;5009327;28;20488;-86
2023/08/02 09:21:05;;;;;;;4.07;2.20;;;;;;;;;;5015490;28;20041;-84
2023/08/02 09:23:30;;;;;;;2.92;1.92;;;;;;;;;;5030822;28;20038;-85
2023/08/02 09:26:14;;;;;;;6.35;2.38;;;;;;;;;;5014037;28;20057;-85
2023/08/02 09:28:40;;;;;;;4.22;1.95;;;;;;;;;;5013803;28;20100;-85
2023/08/02 09:31:15;;;;;;;2.92;2.00;;;;;;;;;;5013007;28;20030;-85
2023/08/02 09:33:50;;;;;;;4.32;2.10;;;;;;;;;;5014373;28;20022;-85
2023/08/02 09:36:22;;;;;;;2.83;1.90;;;;;;;;;;5013782;28;20041;-85
2023/08/02 09:38:57;;;;;;;2.80;1.95;;;;;;;;;;5015289;28;20191;-84
2023/08/02 09:41:23;;;;;;;2.13;1.85;;;;;;;;;;5014516;28;20048;-84
2023/08/02 09:43:49;;;;;;;5.28;2.20;;;;;;;;;;4997457;28;20068;-85
2023/08/02 09:46:30;;;;;;;4.93;2.30;;;;;;;;;;5015494;28;20512;-85
2023/08/02 09:49:21;;;;;;;6.30;2.58;;;;;;;;;;5014736;28;20620;-83
2023/08/02 09:51:46;;;;;;;4.30;2.78;;;;;;;;;;5015006;28;20065;-82
2023/08/02 09:54:12;;;;;;;3.55;2.60;;;;;;;;;;5015250;28;20026;-85
2023/08/02 09:56:38;;;;;;;2.75;2.33;;;;;;;;;;4997520;28;20045;-85
2023/08/02 09:59:04;;;;;;;5.10;3.55;;;;;;;;;;5015943;28;20025;-86
2023/08/02 10:01:30;;;;;;;4.13;2.20;;;;;;;;;;4997854;28;20060;-85
2023/08/02 10:04:02;;;;;;;2.70;2.22;;;;;;;;;;5014197;28;20025;-86
2023/08/02 10:06:36;;;;;;;3.90;2.80;;;;;;;;;;4997710;28;20116;-86
2023/08/02 10:09:04;;;;;;;3.88;2.38;;;;;;;;;;5014327;28;20026;-86
2023/08/02 10:11:31;;;;;;;2.38;1.90;;;;;;;;;;4998584;28;20018;-86
2023/08/02 10:13:57;;;;;;;2.70;1.80;;;;;;;;;;5014765;28;20057;-86
2023/08/02 10:16:23;;;;;;;2.60;1.90;;;;;;;;;;4997249;28;20517;-85
2023/08/02 10:18:48;;;;;;;3.90;2.20;;;;;;;;;;5006142;28;20064;-84
2023/08/02 10:21:14;;;;;;;5.93;2.35;;;;;;;;;;5014458;28;20029;-86
2023/08/02 10:23:40;;;;;;;3.65;2.30;;;;;;;;;;5006040;28;20029;-85
2023/08/02 10:26:05;;;;;;;2.63;1.88;;;;;;;;;;5013665;28;20026;-87
2023/08/02 10:28:31;;;;;;;5.65;2.28;;;;;;;;;;5014969;28;20037;-85
2023/08/02 10:30:57;;;;;;;4.18;2.25;;;;;;;;;;4995970;28;20117;-83
2023/08/02 10:33:22;;;;;;;2.88;2.00;;;;;;;;;;5019092;28;20564;-86
2023/08/02 10:35:55;;;;;;;2.83;2.33;;;;;;;;;;5013620;28;20120;-86
2023/08/02 10:38:27;;;;;;;4.88;2.13;;;;;;;;;;5013476;28;20069;-85
2023/08/02 10:41:05;;;;;;;3.80;2.20;;;;;;;;;;5026575;28;20038;-85
2023/08/02 10:43:31;;;;;;;2.58;1.90;;;;;;;;;;5006490;28;20515;-85
2023/08/02 10:46:16;;;;;;;3.17;2.13;;;;;;;;;;5013496;28;20030;-86
2023/08/02 10:48:42;;;;;;;2.40;2.15;;;;;;;;;;5014030;28;20025;-84
2023/08/02 10:51:41;;;;;;;2.70;2.25;;;;;;;;;;5014519;28;20030;-85
2023/08/02 10:54:09;;;;;;;3.15;2.22;;;;;;;;;;5007027;28;20505;-84
2023/08/02 10:56:36;;;;;;;4.25;2.42;;;;;;;;;;5013915;28;20052;-86
2023/08/02 10:59:01;;;;;;;2.70;2.00;;;;;;;;;;5028932;28;20493;-86
2023/08/02 11:01:26;;;;;;;2.50;1.90;;;;;;;;;;5012671;28;20022;-85
2023/08/02 11:03:52;;;;;;;3.42;2.08;;;;;;;;;;5028972;28;20060;-84
2023/08/02 11:06:24;;;;;;;2.80;2.03;;;;;;;;;;5013038;28;20033;-86
2023/08/02 11:08:50;;;;;;;3.20;1.95;;;;;;;;;;5014124;28;20111;-87
2023/08/02 11:11:15;;;;;;;3.42;2.17;;;;;;;;;;5014945;28;20050;-86
2023/08/02 11:13:41;;;;;;;5.72;2.30;;;;;;;;;;5016308;28;20054;-85
2023/08/02 11:16:09;;;;;;;3.20;1.98;;;;;;;;;;5014186;28;20065;-87
2023/08/02 11:18:34;;;;;;;2.22;1.73;;;;;;;;;;5016977;28;20057;-84
2023/08/02 11:21:26;;;;;;;2.65;1.73;;;;;;;;;;4998773;28;20042;-85
2023/08/02 11:23:58;;;;;;;2.47;2.00;;;;;;;;;;5009786;28;20073;-86
2023/08/02 11:26:24;;;;;;;4.45;2.10;;;;;;;;;;5028821;28;20092;-85
2023/08/02 11:28:52;;;;;;;2.17;1.75;;;;;;;;;;5013410;28;20420;-86
2023/08/02 11:31:17;;;;;;;2.20;1.70;;;;;;;;;;5012603;28;20230;-85
2023/08/02 11:33:43;;;;;;;2.10;1.40;;;;;;;;;;4996305;28;20026;-86
2023/08/02 11:36:08;;;;;;;2.25;1.63;;;;;;;;;;5013079;28;20069;-85
2023/08/02 11:38:37;;;;;;;2.67;1.50;;;;;;;;;;5013463;28;20030;-86
2023/08/02 11:41:02;;;;;;;2.10;1.50;;;;;;;;;;5011628;28;20072;-85
2023/08/02 11:43:37;;;;;;;2.88;1.60;;;;;;;;;;5013072;28;20029;-85
2023/08/02 11:46:03;;;;;;;;;;;;;;;;;;5009866;28;20045;-85
2023/08/02 11:48:30;;;;;;;4.20;1.50;;;;;;;;;;5013146;28;19909;-87
2023/08/02 11:50:58;;;;;;;3.38;1.73;;;;;;;;;;5014988;28;20037;-85
2023/08/02 11:53:27;;;;;;;10.70;7.30;;;;;;;;;;4979924;28;20022;-84
2023/08/02 11:55:52;;;;;;;3.33;1.83;;;;;;;;;;5027994;28;20183;-85
2023/08/02 11:58:18;;;;;;;3.30;1.92;;;;;;;;;;5012995;28;20061;-85
2023/08/02 12:00:43;;;;;;;2.67;1.88;;;;;;;;;;5028424;28;20112;-84
2023/08/02 12:03:09;;;;;;;3.47;1.70;;;;;;;;;;5012348;28;20033;-85
2023/08/02 12:05:35;;;;;;;3.45;2.30;;;;;;;;;;5009678;28;20073;-84
2023/08/02 12:08:10;;;;;;;4.97;3.10;;;;;;;;;;5014905;28;20033;-85
2023/08/02 12:10:38;;;;;;;4.10;2.55;;;;;;;;;;5017416;28;20033;-85
2023/08/02 12:13:30;;;;;;;3.88;1.90;;;;;;;;;;5016678;28;20420;-85
2023/08/02 12:16:00;;;;;;;3.65;2.75;;;;;;;;;;5011913;28;20472;-85
2023/08/02 12:18:25;;;;;;;19.35;12.52;;;;;;;;;;5014333;28;20064;-85
2023/08/02 12:20:54;;;;;;;12.63;8.73;;;;;;;;;;5016689;28;20065;-86
2023/08/02 12:23:30;;;;;;;5.65;3.80;;;;;;;;;;5032489;28;20025;-85
2023/08/02 12:25:58;;;;;;;5.15;2.80;;;;;;;;;;5013591;28;20068;-87
2023/08/02 12:28:26;;;;;;;3.67;2.08;;;;;;;;;;5017175;28;20025;-84
2023/08/02 12:31:03;;;;;;;3.22;2.30;;;;;;;;;;5015357;28;20076;-85
2023/08/02 12:33:32;;;;;;;2.65;1.50;;;;;;;;;;5016879;28;20053;-85
2023/08/02 12:35:58;;;;;;;3.85;1.70;;;;;;;;;;5015367;28;20044;-86
2023/08/02 12:38:28;;;;;;;2.10;1.50;;;;;;;;;;5016403;28;20505;-86
2023/08/02 12:40:55;;;;;;;2.58;2.00;;;;;;;;;;5014859;28;20076;-86
2023/08/02 12:43:20;;;;;;;2.40;1.50;;;;;;;;;;5011649;28;20034;-85
2023/08/02 12:45:46;;;;;;;3.28;2.00;;;;;;;;;;5001244;28;20022;-85
2023/08/02 12:48:11;;;;;;;2.85;1.60;;;;;;;;;;5016248;28;20085;-85
2023/08/02 12:50:36;;;;;;;2.20;1.60;;;;;;;;;;5016440;28;20057;-86
2023/08/02 12:53:04;;;;;;;3.40;1.60;;;;;;;;;;5015558;28;20064;-85
2023/08/02 12:55:29;;;;;;;2.28;1.60;;;;;;;;;;5016280;28;20021;-84
2023/08/02 12:57:55;;;;;;;2.00;1.35;;;;;;;;;;5017172;28;20409;-84
2023/08/02 13:00:21;;;;;;;3.15;1.40;;;;;;;;;;5016020;28;20026;-85
2023/08/02 13:02:46;;;;;;;2.42;1.60;;;;;;;;;;5015426;28;20030;-86
2023/08/02 13:05:12;;;;;;;3.22;1.58;;;;;;;;;;5016114;28;20017;-85
2023/08/02 13:07:37;;;;;;;2.58;1.50;;;;;;;;;;5016762;28;20105;-85
2023/08/02 13:10:03;;;;;;;1.55;1.30;;;;;;;;;;5031448;28;20026;-84
2023/08/02 13:12:31;;;;;;;1.67;1.30;;;;;;;;;;5031320;28;20049;-86
2023/08/02 13:14:56;;;;;;;2.17;1.60;;;;;;;;;;5015674;28;20472;-86
2023/08/02 13:17:22;;;;;;;2.90;1.60;;;;;;;;;;5016288;28;20125;-86
2023/08/02 13:19:47;;;;;;;2.45;1.60;;;;;;;;;;5015135;28;20030;-85
2023/08/02 13:22:13;;;;;;;3.45;1.67;;;;;;;;;;4998591;28;20141;-83
2023/08/02 13:24:41;;;;;;;3.25;1.80;;;;;;;;;;5015470;28;20116;-84
2023/08/02 13:27:06;;;;;;;3.38;1.70;;;;;;;;;;5015268;28;20121;-86
2023/08/02 13:29:32;;;;;;;2.72;1.70;;;;;;;;;;5009534;28;20073;-84
2023/08/02 13:31:57;;;;;;;5.35;2.22;;;;;;;;;;5010876;28;20034;-87
2023/08/02 13:34:23;;;;;;;3.22;1.88;;;;;;;;;;5015278;28;20121;-86
2023/08/02 13:36:49;;;;;;;4.47;1.60;;;;;;;;;;5015507;28;20436;-88
2023/08/02 13:39:15;;;;;;;2.40;1.80;;;;;;;;;;5007897;28;20109;-85
2023/08/02 13:41:40;;;;;;;3.72;1.90;;;;;;;;;;5015120;28;20117;-85
2023/08/02 13:44:06;;;;;;;4.25;2.08;;;;;;;;;;5014463;28;20057;-84
2023/08/02 13:46:31;;;;;;;4.82;2.03;;;;;;;;;;5013665;28;20065;-85
2023/08/02 13:48:58;;;;;;;3.85;1.80;;;;;;;;;;5014895;28;20156;-83
2023/08/02 13:51:23;;;;;;;2.67;1.90;;;;;;;;;;5009963;28;20117;-86
2023/08/02 13:53:49;;;;;;;2.72;2.00;;;;;;;;;;5025497;28;20135;-85
2023/08/02 13:56:14;;;;;;;2.90;2.00;;;;;;;;;;5014673;28;20069;-85
2023/08/02 13:58:40;;;;;;;2.55;1.70;;;;;;;;;;5014705;28;20022;-85
2023/08/02 14:01:06;;;;;;;3.95;1.92;;;;;;;;;;5014103;28;20056;-85
2023/08/02 14:03:31;;;;;;;2.40;1.88;;;;;;;;;;5014633;28;20022;-84
2023/08/02 14:05:57;;;;;;;2.33;1.80;;;;;;;;;;5014632;28;20493;-84
2023/08/02 14:08:22;;;;;;;2.55;1.70;;;;;;;;;;5013442;28;20079;-86
2023/08/02 14:10:48;;;;;;;3.53;1.75;;;;;;;;;;5014116;28;20088;-84
2023/08/02 14:13:13;;;;;;;4.63;1.90;;;;;;;;;;5014059;28;20058;-85
2023/08/02 14:15:39;;;;;;;4.15;1.83;;;;;;;;;;5014957;28;20022;-84
2023/08/02 14:18:04;;;;;;;3.95;1.83;;;;;;;;;;5013537;28;20057;-85
2023/08/02 14:20:33;;;;;;;4.13;1.65;;;;;;;;;;5015027;28;20476;-86
2023/08/02 14:22:58;;;;;;;4.57;1.70;;;;;;;;;;5013367;28;20030;-86
2023/08/02 14:25:24;;;;;;;3.45;1.90;;;;;;;;;;5009677;28;20088;-84
2023/08/02 14:27:49;;;;;;;4.20;1.80;;;;;;;;;;5011451;28;20045;-85
2023/08/02 14:30:15;;;;;;;4.15;1.80;;;;;;;;;;4992394;28;20401;-85
2023/08/02 14:32:41;;;;;;;2.60;1.75;;;;;;;;;;5012365;28;20026;-85
2023/08/02 14:35:07;;;;;;;5.07;2.40;;;;;;;;;;5013973;28;20466;-86
2023/08/02 14:37:32;;;;;;;4.20;2.00;;;;;;;;;;5012807;28;20076;-84
2023/08/02 14:39:58;;;;;;;3.40;2.00;;;;;;;;;;5014113;28;20046;-86
2023/08/02 14:42:23;;;;;;;2.75;1.95;;;;;;;;;;5014175;28;20029;-85